Portada
METAR-TAF:

METAR-TAF

Aeroports :

Alor Setar, Malàisia

latitud: 06-11-40N, longitud: 100-24-03E, altitud: 5 m

Observació

L'informe es va fer fa 1 hora i 12 minuts, a les 21:00 UTC
Vent calma
Temperatura 24°C
Humitat 94%
Pressió 1009 hPa
Visibilitat 10 km o més
Escasses núvols a una alçada de 3000 ft

METAR: WMKA 112100Z 00000KT 9999 FEW030 24/23 Q1009

Hora: 06:12 (22:12 UTC)

Pronòstic

L'informe es va fer fa 5 hores i 12 minuts, a les 17:00 UTC
Pronòstic vàlid del 11 a les 18 UTC al 12 a les 18 UTC
Vent 5 kt del Nord-Est
Visibilitat 10 km o més
Escasses núvols a una alçada de 2800 ft
Evolucionant progressivament
l' 12 a les 03 UTC al 12 a les 05 UTC
Vent 10 kt del Nord-Est
Escasses núvols a una alçada de 2000 ft
Evolucionant progressivament
l' 12 a les 11 UTC al 12 a les 13 UTC
Vent 5 kt del Nord-Est
Escasses núvols a una alçada de 2800 ft

TAF: WMKA 111700Z 1118/1218 05005KT 9999 FEW028 BECMG 1203/1205 05010KT FEW020 BECMG 1211/1213 04005KT FEW028

Observacions i pronòstics meteorològics de més de 4000 aeroports (METAR i TAF).

Les estacions disponibles són els punts grocs i vermells al mapa.

Posi el ratolí al punt desitjat per veure el nom de l'estació.

Feu clic per veure les observacions i els pronòstics meteorològics.

Per canviar el mapa: feu clic els botons verds amb una creu de color negre per apropar; al botó verd amb un guió per allunyar la imatge; o en les fletxes verdes per a mapes adjacents.


METAR-TAF: